createdAt,value
2023-01-25T00:03:32.308Z,95.47
2023-01-25T00:08:33.876Z,95.88
2023-01-25T00:13:35.317Z,95.83
2023-01-25T00:18:36.731Z,95.32
2023-01-25T00:23:38.178Z,95.63
2023-01-25T00:28:39.707Z,95.24
2023-01-25T00:33:51.453Z,96.17
2023-01-25T00:38:53.977Z,95.74
2023-01-25T00:43:55.713Z,95.67
2023-01-25T00:48:57.688Z,95.59
2023-01-25T00:53:59.144Z,96.17
2023-01-25T00:59:00.572Z,95.91
2023-01-25T01:04:03.531Z,95.86
2023-01-25T01:09:07.586Z,96.12
2023-01-25T01:14:09.408Z,96.00
2023-01-25T01:19:11.031Z,96.62
2023-01-25T01:24:12.551Z,96.35
2023-01-25T01:29:14.158Z,95.93
2023-01-25T01:34:15.629Z,96.44
2023-01-25T01:39:17.270Z,96.30
2023-01-25T01:44:24.144Z,96.42
2023-01-25T01:49:32.460Z,96.83
2023-01-25T01:54:42.837Z,96.78
2023-01-25T01:59:44.157Z,96.53
2023-01-25T02:04:48.713Z,96.03
2023-01-25T02:09:53.220Z,96.21
2023-01-25T02:14:54.985Z,96.07
2023-01-25T02:20:02.447Z,96.95
2023-01-25T02:25:14.782Z,96.60
2023-01-25T02:30:16.217Z,96.50
2023-01-25T02:35:20.522Z,96.82
2023-01-25T02:40:21.942Z,96.89
2023-01-25T02:45:28.918Z,96.72
2023-01-25T02:50:30.511Z,96.96
2023-01-25T02:55:32.083Z,96.95
2023-01-25T03:00:33.794Z,96.86
2023-01-25T03:05:35.272Z,96.72
2023-01-25T03:10:36.813Z,96.94
2023-01-25T03:15:38.272Z,96.68
2023-01-25T03:20:39.836Z,96.85
2023-01-25T03:25:41.308Z,96.90
2023-01-25T03:30:42.952Z,96.93
2023-01-25T03:35:44.351Z,97.52
2023-01-25T03:40:46.300Z,97.36
2023-01-25T03:45:59.080Z,97.06
2023-01-25T03:51:00.770Z,97.34
2023-01-25T03:56:09.270Z,97.66
2023-01-25T04:01:10.787Z,97.48
2023-01-25T04:06:12.306Z,98.19
2023-01-25T04:11:13.817Z,98.47
2023-01-25T04:16:15.345Z,98.14
2023-01-25T04:21:16.788Z,98.38
2023-01-25T04:26:18.260Z,98.47
2023-01-25T04:31:19.890Z,99.21
2023-01-25T04:36:21.448Z,99.66
2023-01-25T04:41:27.015Z,99.22
2023-01-25T04:46:28.453Z,99.96
2023-01-25T04:51:29.996Z,99.79
2023-01-25T04:56:31.486Z,100.00
2023-01-25T05:01:35.813Z,100.00
2023-01-25T05:06:37.395Z,100.00
2023-01-25T05:11:38.807Z,100.00
2023-01-25T05:16:40.265Z,100.00
2023-01-25T05:21:59.934Z,100.00
2023-01-25T05:27:05.782Z,100.00
2023-01-25T05:32:10.486Z,100.00
2023-01-25T05:37:16.261Z,100.00
2023-01-25T05:42:18.635Z,100.00
2023-01-25T05:47:20.078Z,100.00
2023-01-25T05:52:21.505Z,100.00
2023-01-25T05:57:22.940Z,100.00
2023-01-25T06:02:24.483Z,100.00
2023-01-25T06:07:26.102Z,100.00
2023-01-25T06:12:29.386Z,100.00
2023-01-25T06:17:30.963Z,100.00
2023-01-25T06:22:32.433Z,100.00
2023-01-25T06:27:33.932Z,100.00
2023-01-25T06:32:35.353Z,100.00
2023-01-25T06:37:37.494Z,100.00
2023-01-25T06:42:38.976Z,100.00
2023-01-25T06:47:40.690Z,100.00
2023-01-25T06:52:42.178Z,100.00
2023-01-25T06:57:43.680Z,100.00
2023-01-25T07:02:45.194Z,100.00
2023-01-25T07:07:47.098Z,100.00
2023-01-25T07:12:48.498Z,100.00
2023-01-25T07:17:50.190Z,100.00
2023-01-25T07:22:51.780Z,100.00
2023-01-25T07:27:53.270Z,100.00
2023-01-25T07:32:55.637Z,100.00
2023-01-25T07:37:57.144Z,100.00
2023-01-25T07:43:03.128Z,100.00
2023-01-25T07:48:10.574Z,100.00
2023-01-25T07:53:13.708Z,100.00
2023-01-25T07:58:15.822Z,100.00
2023-01-25T08:03:17.347Z,100.00
2023-01-25T08:08:18.872Z,100.00
2023-01-25T08:13:20.310Z,100.00
2023-01-25T08:18:21.803Z,100.00
2023-01-25T08:23:24.833Z,100.00
2023-01-25T08:28:26.287Z,100.00
2023-01-25T08:33:28.108Z,100.00
2023-01-25T08:38:29.733Z,100.00
2023-01-25T08:43:31.273Z,100.00
2023-01-25T08:48:33.194Z,100.00
2023-01-25T08:53:35.078Z,100.00
2023-01-25T08:58:42.535Z,100.00
2023-01-25T09:03:46.588Z,100.00
2023-01-25T09:08:48.566Z,100.00
2023-01-25T09:13:50.569Z,100.00
2023-01-25T09:18:52.239Z,100.00
2023-01-25T09:24:05.916Z,100.00
2023-01-25T09:29:09.529Z,100.00
2023-01-25T09:34:13.258Z,100.00
2023-01-25T09:39:14.900Z,100.00
2023-01-25T09:45:00.214Z,100.00
2023-01-25T09:50:17.057Z,100.00
2023-01-25T09:55:21.157Z,99.91
2023-01-25T10:00:37.249Z,99.70
2023-01-25T10:05:49.194Z,99.59
2023-01-25T10:10:57.876Z,99.35
2023-01-25T10:16:14.660Z,99.35
2023-01-25T10:21:26.453Z,98.43
2023-01-25T10:26:40.149Z,98.31
2023-01-25T10:31:46.634Z,98.44
2023-01-25T10:36:53.789Z,98.37
2023-01-25T10:41:58.889Z,97.60
2023-01-25T10:47:23.452Z,97.34
2023-01-25T10:52:27.551Z,96.29
2023-01-25T10:57:33.169Z,95.80
2023-01-25T11:02:48.148Z,95.90
2023-01-25T11:07:49.903Z,95.12
2023-01-25T11:13:21.667Z,95.50
2023-01-25T11:18:35.305Z,93.76
2023-01-25T11:23:37.035Z,94.09
2023-01-25T11:28:38.580Z,93.10
2023-01-25T11:33:42.001Z,93.04
2023-01-25T11:39:29.362Z,93.32
2023-01-25T11:44:46.126Z,92.76
2023-01-25T11:50:09.669Z,92.09
2023-01-25T11:55:26.690Z,92.49
2023-01-25T12:00:36.463Z,92.78
2023-01-25T12:05:44.588Z,92.10
2023-01-25T12:11:05.688Z,93.34
2023-01-25T12:16:20.040Z,91.70
2023-01-25T12:21:50.681Z,92.64
2023-01-25T12:27:24.508Z,91.82
2023-01-25T12:32:33.301Z,91.58
2023-01-25T12:37:39.817Z,91.65
2023-01-25T12:42:46.601Z,92.22
2023-01-25T12:47:56.260Z,92.25
2023-01-25T12:53:18.139Z,92.07
2023-01-25T12:58:38.995Z,91.16
2023-01-25T13:04:15.899Z,91.08
2023-01-25T13:09:37.604Z,90.99
2023-01-25T13:14:42.541Z,91.23
2023-01-25T13:19:44.183Z,91.71
2023-01-25T13:25:04.008Z,91.30
2023-01-25T13:30:31.345Z,92.03
2023-01-25T13:35:32.977Z,91.47
2023-01-25T13:40:39.897Z,90.66
2023-01-25T13:45:42.387Z,91.24
2023-01-25T13:50:58.312Z,90.48
2023-01-25T13:56:00.070Z,91.51
2023-01-25T14:01:07.104Z,91.06
2023-01-25T14:06:28.257Z,90.74
2023-01-25T14:11:34.564Z,90.89
2023-01-25T14:16:36.158Z,91.06
2023-01-25T14:21:39.844Z,90.14
2023-01-25T14:26:45.569Z,90.38
2023-01-25T14:31:51.585Z,90.55
2023-01-25T14:37:25.735Z,90.70
2023-01-25T14:42:27.788Z,89.44
2023-01-25T14:47:32.523Z,90.62
2023-01-25T14:52:34.543Z,89.89
2023-01-25T14:57:40.949Z,90.40
2023-01-25T15:02:56.747Z,90.25
2023-01-25T15:08:15.766Z,89.78
2023-01-25T15:13:20.954Z,90.24
2023-01-25T15:18:51.772Z,90.13
2023-01-25T15:23:55.291Z,89.62
2023-01-25T15:28:59.927Z,89.66
2023-01-25T15:34:02.593Z,90.16
2023-01-25T15:39:04.348Z,90.25
2023-01-25T15:44:06.010Z,89.42
2023-01-25T15:49:12.604Z,90.70
2023-01-25T15:54:14.169Z,90.48
2023-01-25T15:59:18.044Z,90.15
2023-01-25T16:04:19.556Z,90.31
2023-01-25T16:09:24.265Z,90.64
2023-01-25T16:14:29.226Z,90.56
2023-01-25T16:19:32.112Z,90.25
2023-01-25T16:24:33.591Z,90.14
2023-01-25T16:29:35.077Z,90.82
2023-01-25T16:34:36.577Z,90.58
2023-01-25T16:39:37.989Z,90.07
2023-01-25T16:44:39.491Z,90.70
2023-01-25T16:49:40.968Z,90.97
2023-01-25T16:54:42.473Z,90.08
2023-01-25T16:59:43.906Z,90.09
2023-01-25T17:04:45.330Z,90.09
2023-01-25T17:09:46.915Z,90.45
2023-01-25T17:14:48.323Z,90.22
2023-01-25T17:19:51.570Z,90.15
2023-01-25T17:24:53.064Z,90.79
2023-01-25T17:29:54.507Z,91.03
2023-01-25T17:34:59.057Z,90.74
2023-01-25T17:40:00.576Z,90.23
2023-01-25T17:45:02.244Z,90.71
2023-01-25T17:50:04.079Z,89.59
2023-01-25T17:55:06.108Z,90.08
2023-01-25T18:00:11.837Z,90.31
2023-01-25T18:05:14.460Z,90.68
2023-01-25T18:10:16.030Z,90.83
2023-01-25T18:15:20.955Z,90.46
2023-01-25T18:20:22.422Z,90.66
2023-01-25T18:25:35.558Z,90.88
2023-01-25T18:30:44.359Z,91.45
2023-01-25T18:35:49.223Z,90.78
2023-01-25T18:40:50.842Z,91.27
2023-01-25T18:45:56.413Z,90.41
2023-01-25T18:51:12.860Z,90.15
2023-01-25T18:56:16.838Z,90.26
2023-01-25T19:01:20.948Z,90.07
2023-01-25T19:06:24.756Z,90.37
2023-01-25T19:11:26.721Z,90.56
2023-01-25T19:16:28.517Z,90.97
2023-01-25T19:21:30.258Z,90.85
2023-01-25T19:26:31.689Z,90.97
2023-01-25T19:31:33.860Z,90.66
2023-01-25T19:36:37.866Z,91.17
2023-01-25T19:41:39.433Z,90.71
2023-01-25T19:46:42.173Z,90.54
2023-01-25T19:51:48.772Z,90.98
2023-01-25T19:56:50.346Z,90.23
2023-01-25T20:01:52.275Z,90.81
2023-01-25T20:06:54.024Z,90.61
2023-01-25T20:11:56.918Z,91.07
2023-01-25T20:16:58.393Z,90.94
2023-01-25T20:22:00.516Z,90.60
2023-01-25T20:27:04.263Z,90.58
2023-01-25T20:32:06.300Z,90.41
2023-01-25T20:37:07.924Z,90.87
2023-01-25T20:42:09.523Z,90.96
2023-01-25T20:47:10.995Z,90.33
2023-01-25T20:52:13.806Z,90.52
2023-01-25T20:57:15.398Z,90.33
2023-01-25T21:02:16.833Z,90.59
2023-01-25T21:07:18.321Z,90.58
2023-01-25T21:12:19.759Z,90.52
2023-01-25T21:17:21.280Z,90.71
2023-01-25T21:22:22.808Z,90.73
2023-01-25T21:27:25.082Z,90.84
2023-01-25T21:32:26.522Z,90.81
2023-01-25T21:37:29.259Z,90.65
2023-01-25T21:42:32.397Z,90.64
2023-01-25T21:47:34.007Z,90.85
2023-01-25T21:52:36.406Z,90.98
2023-01-25T21:57:40.963Z,90.53
2023-01-25T22:02:43.653Z,90.91
2023-01-25T22:07:45.152Z,90.69
2023-01-25T22:12:50.558Z,90.64
2023-01-25T22:17:52.140Z,90.59
2023-01-25T22:22:53.505Z,90.83
2023-01-25T22:28:00.158Z,90.84
2023-01-25T22:33:01.564Z,90.55
2023-01-25T22:38:02.951Z,91.02
2023-01-25T22:43:04.421Z,91.43
2023-01-25T22:48:06.078Z,91.03
2023-01-25T22:53:07.455Z,90.98
2023-01-25T22:58:09.950Z,90.69
2023-01-25T23:03:11.330Z,90.77
2023-01-25T23:08:12.760Z,90.95
2023-01-25T23:13:14.200Z,91.12
2023-01-25T23:18:34.452Z,91.36
2023-01-25T23:23:35.927Z,91.45
2023-01-25T23:28:37.379Z,92.28
2023-01-25T23:33:38.802Z,92.06
2023-01-25T23:38:41.206Z,92.72
2023-01-25T23:43:43.000Z,92.06
2023-01-25T23:48:45.487Z,92.28
2023-01-25T23:53:47.520Z,92.50
2023-01-25T23:58:49.337Z,92.73
